createdAt,value
2023-07-23T04:00:30.796Z,155.00
2023-07-23T04:01:32.129Z,153.00
2023-07-23T04:02:31.810Z,149.00
2023-07-23T04:03:31.790Z,156.00
2023-07-23T04:04:31.772Z,160.00
2023-07-23T04:05:31.728Z,166.00
2023-07-23T04:06:31.734Z,182.00
2023-07-23T04:07:31.779Z,190.00
2023-07-23T04:08:31.716Z,205.00
2023-07-23T04:09:31.701Z,220.00
2023-07-23T04:10:31.668Z,227.00
2023-07-23T04:11:31.676Z,236.00
2023-07-23T04:12:31.643Z,231.00
2023-07-23T04:13:31.634Z,230.00
2023-07-23T04:14:31.653Z,227.00
2023-07-23T04:15:31.648Z,225.00
2023-07-23T04:16:31.662Z,224.00
2023-07-23T04:17:31.674Z,225.00
2023-07-23T04:18:31.586Z,220.00
2023-07-23T04:19:31.573Z,218.00
2023-07-23T04:20:31.560Z,227.00
2023-07-23T04:21:31.754Z,232.00
2023-07-23T04:22:31.550Z,240.00
2023-07-23T04:23:31.554Z,252.00
2023-07-23T04:24:31.574Z,264.00
2023-07-23T04:25:31.522Z,275.00
2023-07-23T04:26:31.538Z,285.00
2023-07-23T04:27:31.522Z,292.00
2023-07-23T04:28:31.486Z,297.00
2023-07-23T04:29:31.481Z,299.00
2023-07-23T04:30:31.444Z,290.00
2023-07-23T04:31:31.916Z,289.00
2023-07-23T04:32:31.502Z,289.00
2023-07-23T04:33:31.432Z,285.00
2023-07-23T04:34:31.406Z,277.00
2023-07-23T04:35:31.413Z,280.00
2023-07-23T04:36:31.421Z,279.00
2023-07-23T04:37:31.400Z,280.00
2023-07-23T04:38:31.350Z,283.00
2023-07-23T04:39:31.360Z,295.00
2023-07-23T04:40:31.344Z,309.00
2023-07-23T04:41:31.577Z,318.00
2023-07-23T04:42:31.324Z,330.00
2023-07-23T04:43:31.312Z,334.00
2023-07-23T04:44:31.284Z,334.00
2023-07-23T04:45:31.297Z,344.00
2023-07-23T04:46:31.333Z,347.00
2023-07-23T04:47:31.332Z,346.00
2023-07-23T04:48:31.252Z,332.00
2023-07-23T04:49:31.248Z,304.00
2023-07-23T04:50:31.217Z,297.00
2023-07-23T04:51:31.320Z,348.00
2023-07-23T04:52:31.268Z,398.00
2023-07-23T04:53:31.204Z,423.00
2023-07-23T04:54:31.191Z,442.00
2023-07-23T04:55:31.202Z,481.00
2023-07-23T04:56:31.154Z,499.00
2023-07-23T04:57:31.169Z,526.00
2023-07-23T04:58:31.144Z,563.00
2023-07-23T04:59:31.160Z,577.00
2023-07-23T05:00:31.135Z,584.00
2023-07-23T05:01:31.355Z,596.00
2023-07-23T05:02:31.117Z,612.00
2023-07-23T05:03:31.160Z,627.00
2023-07-23T05:04:31.117Z,653.00
2023-07-23T05:05:31.089Z,662.00
2023-07-23T05:06:31.069Z,663.00
2023-07-23T05:07:31.043Z,649.00
2023-07-23T05:08:31.081Z,629.00
2023-07-23T05:09:31.015Z,605.00
2023-07-23T05:10:31.012Z,589.00
2023-07-23T05:11:31.237Z,554.00
2023-07-23T05:12:30.993Z,515.00
2023-07-23T05:13:30.978Z,480.00
2023-07-23T05:14:30.969Z,463.00
2023-07-23T05:15:30.968Z,488.00
2023-07-23T05:16:30.940Z,504.00
2023-07-23T05:17:30.938Z,508.00
2023-07-23T05:18:30.926Z,481.00
2023-07-23T05:19:30.908Z,443.00
2023-07-23T05:20:30.900Z,418.00
2023-07-23T05:21:31.121Z,361.00
2023-07-23T05:22:33.191Z,384.00
2023-07-23T05:23:30.878Z,461.00
2023-07-23T05:24:30.873Z,523.00
2023-07-23T05:25:30.830Z,586.00
2023-07-23T05:26:30.821Z,631.00
2023-07-23T05:27:30.821Z,660.00
2023-07-23T05:28:30.806Z,673.00
2023-07-23T05:29:30.790Z,682.00
2023-07-23T05:30:30.783Z,690.00
2023-07-23T05:31:31.177Z,708.00
2023-07-23T05:32:30.802Z,780.00
2023-07-23T05:33:30.752Z,815.00
2023-07-23T05:34:30.753Z,863.00
2023-07-23T05:35:30.726Z,906.00
2023-07-23T05:36:30.709Z,920.00
2023-07-23T05:37:30.687Z,928.00
2023-07-23T05:38:30.706Z,904.00
2023-07-23T05:39:30.691Z,923.00
2023-07-23T05:40:30.690Z,927.00
2023-07-23T05:41:30.848Z,941.00
2023-07-23T05:42:30.646Z,996.00
2023-07-23T05:43:30.627Z,1020.00
2023-07-23T05:44:30.651Z,991.00
2023-07-23T05:45:30.611Z,990.00
2023-07-23T05:46:30.652Z,1012.00
2023-07-23T05:47:30.619Z,1027.00
2023-07-23T05:48:30.577Z,1064.00
2023-07-23T05:49:30.564Z,1094.00
2023-07-23T05:50:30.558Z,1110.00
2023-07-23T05:51:30.774Z,1107.00
2023-07-23T05:52:30.548Z,1098.00
2023-07-23T05:53:30.527Z,1092.00
2023-07-23T05:54:30.538Z,1089.00
2023-07-23T05:55:35.754Z,1132.00
2023-07-23T05:56:30.488Z,1140.00
2023-07-23T05:57:30.465Z,1138.00
2023-07-23T05:58:30.464Z,1163.00
2023-07-23T05:59:30.492Z,1196.00
2023-07-23T06:00:30.464Z,1221.00
2023-07-23T06:01:30.770Z,1260.00
2023-07-23T06:02:30.508Z,1300.00
2023-07-23T06:03:36.707Z,1317.00
2023-07-23T06:04:30.444Z,1331.00
2023-07-23T06:05:30.405Z,1365.00
2023-07-23T06:06:30.378Z,1405.00
2023-07-23T06:07:30.372Z,1405.00
2023-07-23T06:08:30.350Z,1410.00
2023-07-23T06:09:30.336Z,1394.00
2023-07-23T06:10:30.355Z,1418.00
2023-07-23T06:11:30.502Z,1470.00
2023-07-23T06:12:30.304Z,1469.00
2023-07-23T06:13:30.345Z,1450.00
2023-07-23T06:14:30.378Z,1438.00
2023-07-23T06:15:30.381Z,1443.00
2023-07-23T06:16:30.269Z,1457.00
2023-07-23T06:17:30.263Z,1488.00
2023-07-23T06:18:30.252Z,1505.00
2023-07-23T06:19:30.247Z,1532.00
2023-07-23T06:20:30.236Z,1464.00
2023-07-23T06:21:30.426Z,1476.00
2023-07-23T06:22:30.213Z,1508.00
2023-07-23T06:23:30.208Z,1550.00
2023-07-23T06:24:30.281Z,1549.00
2023-07-23T06:25:30.188Z,1535.00
2023-07-23T06:26:30.194Z,1340.00
2023-07-23T06:27:30.478Z,1813.00
2023-07-23T06:28:30.206Z,1591.00
2023-07-23T06:29:30.163Z,1587.00
2023-07-23T06:30:30.175Z,1499.00
2023-07-23T06:31:30.454Z,1420.00
2023-07-23T06:32:30.169Z,1387.00
2023-07-23T06:33:30.149Z,1391.00
2023-07-23T06:34:30.100Z,1406.00
2023-07-23T06:35:30.131Z,1394.00
2023-07-23T06:36:30.152Z,1339.00
2023-07-23T06:37:30.089Z,1330.00
2023-07-23T06:38:30.072Z,1347.00
2023-07-23T06:39:30.067Z,1386.00
2023-07-23T06:40:30.042Z,1539.00
2023-07-23T06:41:30.274Z,1699.00
2023-07-23T06:42:30.081Z,1618.00
2023-07-23T06:43:29.986Z,1424.00
2023-07-23T06:44:29.949Z,1305.00
2023-07-23T06:45:29.942Z,1277.00
2023-07-23T06:46:29.983Z,1233.00
2023-07-23T06:47:29.957Z,1279.00
2023-07-23T06:48:30.112Z,1265.00
2023-07-23T06:49:30.223Z,1323.00
2023-07-23T06:50:29.890Z,1437.00
2023-07-23T06:51:30.222Z,1361.00
2023-07-23T06:52:29.917Z,1297.00
2023-07-23T06:53:29.911Z,1281.00
2023-07-23T06:54:29.877Z,1244.00
2023-07-23T06:55:29.884Z,953.00
2023-07-23T06:56:29.881Z,1437.00
2023-07-23T06:57:29.856Z,1446.00
2023-07-23T06:58:29.954Z,847.00
2023-07-23T06:59:29.786Z,1627.00
2023-07-23T07:00:29.784Z,2282.00
2023-07-23T07:01:30.105Z,1685.00
2023-07-23T07:02:29.775Z,2075.00
2023-07-23T07:03:29.843Z,2175.00
2023-07-23T07:04:30.512Z,2555.00
2023-07-23T07:05:29.758Z,2485.00
2023-07-23T07:06:29.805Z,2424.00
2023-07-23T07:07:29.796Z,2124.00
2023-07-23T07:08:29.711Z,2173.00
2023-07-23T07:09:29.722Z,1904.00
2023-07-23T07:10:29.668Z,2655.00
2023-07-23T07:11:29.854Z,2052.00
2023-07-23T07:12:29.654Z,2195.00
2023-07-23T07:13:29.620Z,2165.00
2023-07-23T07:14:29.644Z,1806.00
2023-07-23T07:15:29.627Z,2059.00
2023-07-23T07:16:29.634Z,2106.00
2023-07-23T07:17:29.785Z,1736.00
2023-07-23T07:18:29.574Z,1436.00
2023-07-23T07:19:29.607Z,3787.00
2023-07-23T07:20:29.711Z,2222.00
2023-07-23T07:21:29.868Z,2037.00
2023-07-23T07:22:29.540Z,2105.00
2023-07-23T07:23:29.510Z,2253.00
2023-07-23T07:24:29.517Z,2069.00
2023-07-23T07:25:29.519Z,2070.00
2023-07-23T07:26:29.470Z,2162.00
2023-07-23T07:27:29.487Z,2385.00
2023-07-23T07:28:29.456Z,1626.00
2023-07-23T07:29:29.449Z,3111.00
2023-07-23T07:30:29.441Z,2643.00
2023-07-23T07:31:29.670Z,2565.00
2023-07-23T07:32:29.449Z,2540.00
2023-07-23T07:33:29.492Z,2539.00
2023-07-23T07:34:29.404Z,2461.00
2023-07-23T07:35:29.381Z,2271.00
2023-07-23T07:36:29.373Z,2563.00
2023-07-23T07:37:29.384Z,3323.00
2023-07-23T07:38:29.362Z,3107.00
2023-07-23T07:39:29.387Z,2940.00
2023-07-23T07:40:29.396Z,2870.00
2023-07-23T07:41:29.563Z,2812.00
2023-07-23T07:42:29.319Z,2787.00
2023-07-23T07:43:29.298Z,2702.00
2023-07-23T07:44:30.413Z,2583.00
2023-07-23T07:45:29.287Z,2574.00
2023-07-23T07:46:29.300Z,2560.00
2023-07-23T07:47:29.294Z,2586.00
2023-07-23T07:48:29.245Z,2541.00
2023-07-23T07:49:29.234Z,2541.00
2023-07-23T07:50:29.226Z,2586.00
2023-07-23T07:51:29.369Z,2657.00
2023-07-23T07:52:29.218Z,2755.00
2023-07-23T07:53:29.229Z,2826.00
2023-07-23T07:54:29.227Z,2907.00
2023-07-23T07:55:29.157Z,2931.00
2023-07-23T07:56:29.157Z,3013.00
2023-07-23T07:57:29.161Z,3027.00
2023-07-23T07:58:29.229Z,3092.00
2023-07-23T07:59:29.113Z,2954.00
2023-07-23T08:00:29.115Z,2692.00
2023-07-23T08:01:29.397Z,2542.00
2023-07-23T08:02:29.234Z,2254.00
2023-07-23T08:03:29.758Z,2118.00
2023-07-23T08:04:29.316Z,2192.00
2023-07-23T08:05:29.158Z,2268.00
2023-07-23T08:06:29.086Z,2358.00
2023-07-23T08:07:29.081Z,2543.00
2023-07-23T08:08:29.098Z,2569.00
2023-07-23T08:09:28.992Z,2471.00
2023-07-23T08:10:29.005Z,2325.00
2023-07-23T08:11:29.182Z,2276.00
2023-07-23T08:12:29.026Z,2264.00
2023-07-23T08:13:29.073Z,2324.00
2023-07-23T08:14:29.000Z,2348.00
2023-07-23T08:15:28.932Z,2288.00
2023-07-23T08:16:28.982Z,2427.00
2023-07-23T08:17:29.021Z,2588.00
2023-07-23T08:18:28.971Z,2604.00
2023-07-23T08:19:28.950Z,2604.00
2023-07-23T08:20:28.958Z,2504.00
2023-07-23T08:21:29.140Z,2440.00
2023-07-23T08:22:28.877Z,2439.00
2023-07-23T08:23:28.928Z,2520.00
2023-07-23T08:24:29.086Z,2630.00
2023-07-23T08:25:28.944Z,2696.00
2023-07-23T08:26:28.831Z,2689.00
2023-07-23T08:27:28.790Z,2762.00
2023-07-23T08:28:28.813Z,2831.00
2023-07-23T08:29:28.776Z,2808.00
2023-07-23T08:30:28.871Z,2775.00
2023-07-23T08:31:29.008Z,2736.00
2023-07-23T08:32:28.854Z,2718.00
2023-07-23T08:33:28.873Z,2580.00
2023-07-23T08:34:28.717Z,2374.00
2023-07-23T08:35:28.704Z,2252.00
2023-07-23T08:36:28.692Z,2296.00
2023-07-23T08:37:28.700Z,2440.00
2023-07-23T08:38:28.674Z,2643.00
2023-07-23T08:39:28.660Z,2746.00
2023-07-23T08:40:28.655Z,2735.00
2023-07-23T08:41:28.898Z,2632.00
2023-07-23T08:42:28.629Z,2546.00
2023-07-23T08:43:28.619Z,2455.00
2023-07-23T08:44:28.609Z,2385.00
2023-07-23T08:45:28.615Z,2380.00
2023-07-23T08:46:28.743Z,2460.00
2023-07-23T08:47:28.597Z,2495.00
2023-07-23T08:48:28.565Z,2418.00
2023-07-23T08:49:28.561Z,2263.00
2023-07-23T08:50:28.528Z,2120.00
2023-07-23T08:51:28.817Z,2071.00
2023-07-23T08:52:28.506Z,2105.00
2023-07-23T08:53:28.536Z,2213.00
2023-07-23T08:54:28.548Z,2357.00
2023-07-23T08:55:28.490Z,2446.00
2023-07-23T08:56:28.463Z,2502.00
2023-07-23T08:57:28.456Z,2591.00
2023-07-23T08:58:28.462Z,2684.00
2023-07-23T08:59:28.428Z,2771.00
2023-07-23T09:00:28.436Z,2857.00
2023-07-23T09:01:28.760Z,2916.00
2023-07-23T09:02:28.434Z,3287.00
2023-07-23T09:03:28.380Z,3033.00
2023-07-23T09:04:28.499Z,3646.00
2023-07-23T09:05:28.377Z,3361.00
2023-07-23T09:06:28.453Z,3266.00
2023-07-23T09:07:28.372Z,3242.00
2023-07-23T09:08:28.385Z,3121.00
2023-07-23T09:09:28.366Z,3157.00
2023-07-23T09:10:28.324Z,3178.00
2023-07-23T09:11:28.526Z,3034.00
2023-07-23T09:12:28.344Z,3264.00
2023-07-23T09:13:28.298Z,3205.00
2023-07-23T09:14:28.413Z,3590.00
2023-07-23T09:15:28.265Z,3404.00
2023-07-23T09:16:28.280Z,3336.00
2023-07-23T09:17:28.305Z,3369.00
2023-07-23T09:18:28.329Z,3447.00
2023-07-23T09:19:28.268Z,3430.00
2023-07-23T09:20:28.208Z,3382.00
2023-07-23T09:21:28.439Z,3314.00
2023-07-23T09:22:28.199Z,3230.00
2023-07-23T09:23:28.221Z,3320.00
2023-07-23T09:24:28.272Z,3104.00
2023-07-23T09:25:28.152Z,2884.00
2023-07-23T09:26:28.200Z,2278.00
2023-07-23T09:27:28.165Z,2736.00
2023-07-23T09:28:28.102Z,2684.00
2023-07-23T09:29:28.167Z,3190.00
2023-07-23T09:30:28.110Z,3357.00
2023-07-23T09:31:28.560Z,4297.00
2023-07-23T09:32:28.168Z,5047.00
2023-07-23T09:33:28.120Z,3682.00
2023-07-23T09:34:28.276Z,5053.00
2023-07-23T09:35:28.070Z,5164.00
2023-07-23T09:36:28.129Z,5547.00
2023-07-23T09:37:28.053Z,5444.00
2023-07-23T09:38:28.154Z,5486.00
2023-07-23T09:39:28.026Z,6430.00
2023-07-23T09:40:28.075Z,4016.00
2023-07-23T09:41:28.224Z,3394.00
2023-07-23T09:42:28.292Z,3093.00
2023-07-23T09:43:28.190Z,3756.00
2023-07-23T09:44:28.041Z,2825.00
2023-07-23T09:45:28.974Z,4124.00
2023-07-23T09:46:27.980Z,3151.00
2023-07-23T09:47:27.909Z,3863.00
2023-07-23T09:48:27.957Z,4048.00
2023-07-23T09:49:27.889Z,3964.00
2023-07-23T09:50:27.878Z,5266.00
2023-07-23T09:51:28.033Z,4146.00
2023-07-23T09:52:27.839Z,3729.00
2023-07-23T09:53:27.850Z,4348.00
2023-07-23T09:54:27.818Z,3800.00
2023-07-23T09:55:27.813Z,4648.00
2023-07-23T09:56:27.790Z,3863.00
2023-07-23T09:57:27.798Z,4681.00
2023-07-23T09:58:27.765Z,3871.00
2023-07-23T09:59:27.775Z,5058.00
2023-07-23T10:00:27.742Z,4573.00
2023-07-23T10:01:28.135Z,5091.00
2023-07-23T10:02:27.843Z,3996.00
2023-07-23T10:03:27.869Z,4338.00
2023-07-23T10:04:27.712Z,4120.00
2023-07-23T10:05:27.709Z,4294.00
2023-07-23T10:06:27.694Z,4543.00
2023-07-23T10:07:27.685Z,4938.00
2023-07-23T10:08:27.681Z,4281.00
2023-07-23T10:09:27.752Z,4246.00
2023-07-23T10:10:27.751Z,5309.00
2023-07-23T10:11:28.001Z,5631.00
2023-07-23T10:12:27.677Z,5228.00
2023-07-23T10:13:27.654Z,5257.00
2023-07-23T10:14:27.597Z,5279.00
2023-07-23T10:15:27.580Z,4974.00
2023-07-23T10:16:27.633Z,5359.00
2023-07-23T10:17:27.607Z,5468.00
2023-07-23T10:18:27.581Z,5355.00
2023-07-23T10:19:28.086Z,6099.00
2023-07-23T10:20:27.575Z,5807.00
2023-07-23T10:21:27.793Z,5628.00
2023-07-23T10:22:27.552Z,6511.00
2023-07-23T10:23:27.532Z,5929.00
2023-07-23T10:24:27.553Z,4920.00
2023-07-23T10:25:31.741Z,5122.00
2023-07-23T10:26:27.472Z,4610.00
2023-07-23T10:27:27.453Z,3977.00
2023-07-23T10:28:27.444Z,3346.00
2023-07-23T10:29:27.465Z,4030.00
2023-07-23T10:30:27.437Z,5130.00
2023-07-23T10:31:27.624Z,5184.00
2023-07-23T10:32:27.436Z,5652.00
2023-07-23T10:33:27.390Z,4766.00
2023-07-23T10:34:27.371Z,4790.00
2023-07-23T10:35:27.398Z,5834.00
2023-07-23T10:36:27.357Z,5155.00
2023-07-23T10:37:27.376Z,5964.00
2023-07-23T10:38:27.338Z,5482.00
2023-07-23T10:39:27.332Z,5415.00
2023-07-23T10:40:27.325Z,5142.00
2023-07-23T10:41:27.544Z,5100.00
2023-07-23T10:42:27.291Z,5156.00
2023-07-23T10:43:27.339Z,4235.00
2023-07-23T10:44:27.275Z,5419.00
2023-07-23T10:45:27.309Z,5606.00
2023-07-23T10:46:27.302Z,5952.00
2023-07-23T10:47:27.274Z,6387.00
2023-07-23T10:48:27.231Z,5508.00
2023-07-23T10:49:27.228Z,5271.00
2023-07-23T10:50:27.206Z,4392.00
2023-07-23T10:51:27.505Z,4298.00
2023-07-23T10:52:27.177Z,4610.00
2023-07-23T10:53:27.212Z,3875.00
2023-07-23T10:54:27.167Z,4172.00
2023-07-23T10:55:27.181Z,4495.00
2023-07-23T10:56:27.198Z,5281.00
2023-07-23T10:57:27.228Z,6268.00
2023-07-23T10:58:27.147Z,5503.00
2023-07-23T10:59:27.120Z,4596.00
2023-07-23T11:00:27.102Z,5869.00
2023-07-23T11:01:27.595Z,4653.00
2023-07-23T11:02:27.223Z,3969.00
2023-07-23T11:03:27.206Z,2719.00
2023-07-23T11:04:27.070Z,3794.00
2023-07-23T11:05:28.062Z,5278.00
2023-07-23T11:06:27.029Z,5537.00
2023-07-23T11:07:27.042Z,6113.00
2023-07-23T11:08:27.034Z,4939.00
2023-07-23T11:09:27.032Z,6199.00
2023-07-23T11:10:27.022Z,5456.00
2023-07-23T11:11:27.243Z,5275.00
2023-07-23T11:12:26.968Z,5060.00
2023-07-23T11:13:27.002Z,5990.00
2023-07-23T11:14:26.954Z,5261.00
2023-07-23T11:15:26.938Z,4836.00
2023-07-23T11:16:27.074Z,4660.00
2023-07-23T11:17:27.667Z,5753.00
2023-07-23T11:18:26.925Z,6252.00
2023-07-23T11:19:26.895Z,6709.00
2023-07-23T11:20:26.900Z,6446.00
2023-07-23T11:21:27.079Z,8353.00
2023-07-23T11:22:26.859Z,2560.00
2023-07-23T11:23:26.849Z,7614.00
2023-07-23T11:24:26.881Z,2745.00
2023-07-23T11:25:26.828Z,5672.00
2023-07-23T11:26:26.838Z,6038.00
2023-07-23T11:27:26.909Z,6199.00
2023-07-23T11:28:26.821Z,6528.00
2023-07-23T11:29:26.799Z,5849.00
2023-07-23T11:30:26.752Z,6655.00
2023-07-23T11:31:27.110Z,5947.00
2023-07-23T11:32:26.813Z,6829.00
2023-07-23T11:33:26.763Z,6656.00
2023-07-23T11:34:26.778Z,7299.00
2023-07-23T11:35:26.769Z,4957.00
2023-07-23T11:36:26.748Z,5500.00
2023-07-23T11:37:26.729Z,5617.00
2023-07-23T11:38:26.721Z,5310.00
2023-07-23T11:39:26.780Z,6684.00
2023-07-23T11:40:26.648Z,4112.00
2023-07-23T11:41:29.971Z,3783.00
2023-07-23T11:42:27.403Z,3750.00
2023-07-23T11:43:26.623Z,3585.00
2023-07-23T11:44:26.608Z,3630.00
2023-07-23T11:45:26.596Z,3369.00
2023-07-23T11:46:26.599Z,3949.00
2023-07-23T11:47:26.690Z,3708.00
2023-07-23T11:48:26.573Z,3937.00
2023-07-23T11:49:26.575Z,3571.00
2023-07-23T11:50:26.594Z,4064.00
2023-07-23T11:51:26.969Z,3437.00
2023-07-23T11:52:26.613Z,4400.00
2023-07-23T11:53:26.514Z,3707.00
2023-07-23T11:54:26.551Z,5284.00
2023-07-23T11:55:26.577Z,6591.00
2023-07-23T11:56:26.498Z,7216.00
2023-07-23T11:57:26.466Z,6858.00
2023-07-23T11:58:26.550Z,6942.00
2023-07-23T11:59:26.476Z,6924.00
2023-07-23T12:00:26.471Z,6686.00
2023-07-23T12:01:26.674Z,6677.00
2023-07-23T12:02:26.445Z,4702.00
2023-07-23T12:03:26.425Z,4860.00
2023-07-23T12:04:26.424Z,4972.00
2023-07-23T12:05:26.392Z,5248.00
2023-07-23T12:06:26.383Z,4862.00
2023-07-23T12:07:26.368Z,4759.00
2023-07-23T12:08:26.375Z,4432.00
2023-07-23T12:09:26.369Z,4663.00
2023-07-23T12:10:26.320Z,5417.00
2023-07-23T12:11:26.398Z,5494.00
2023-07-23T12:12:26.321Z,5112.00
2023-07-23T12:13:26.348Z,5495.00
2023-07-23T12:14:26.371Z,3588.00
2023-07-23T12:15:26.278Z,2785.00
2023-07-23T12:16:26.436Z,5938.00
2023-07-23T12:17:26.263Z,4850.00
2023-07-23T12:18:36.861Z,4570.00
2023-07-23T12:19:26.276Z,4472.00
2023-07-23T12:20:26.230Z,4206.00
2023-07-23T12:21:26.441Z,3616.00
2023-07-23T12:22:26.192Z,4996.00
2023-07-23T12:23:26.181Z,4778.00
2023-07-23T12:24:26.265Z,4996.00
2023-07-23T12:25:26.164Z,4670.00
2023-07-23T12:26:26.354Z,4155.00
2023-07-23T12:27:26.159Z,3315.00
2023-07-23T12:28:26.140Z,2906.00
2023-07-23T12:29:26.130Z,2697.00
2023-07-23T12:30:26.116Z,3526.00
2023-07-23T12:31:26.231Z,3406.00
2023-07-23T12:32:26.113Z,3790.00
2023-07-23T12:33:26.081Z,3289.00
2023-07-23T12:34:26.056Z,3099.00
2023-07-23T12:35:26.138Z,3547.00
2023-07-23T12:36:26.326Z,3559.00
2023-07-23T12:37:26.054Z,3791.00
2023-07-23T12:38:26.030Z,3180.00
2023-07-23T12:39:26.009Z,3115.00
2023-07-23T12:40:25.999Z,3340.00
2023-07-23T12:41:26.019Z,3535.00
2023-07-23T12:42:25.997Z,3484.00
2023-07-23T12:43:25.984Z,3802.00
2023-07-23T12:44:25.988Z,3933.00
2023-07-23T12:45:25.979Z,3844.00
2023-07-23T12:46:26.077Z,3560.00
2023-07-23T12:47:26.013Z,3627.00
2023-07-23T12:48:25.916Z,3794.00
2023-07-23T12:49:25.901Z,3555.00
2023-07-23T12:50:25.917Z,3438.00
2023-07-23T12:51:25.993Z,3592.00
2023-07-23T12:52:25.867Z,3341.00
2023-07-23T12:53:25.883Z,3086.00
2023-07-23T12:54:25.856Z,2841.00
2023-07-23T12:55:25.871Z,2578.00
2023-07-23T12:56:25.854Z,2109.00
2023-07-23T12:57:25.846Z,1904.00
2023-07-23T12:58:25.832Z,1980.00
2023-07-23T12:59:25.840Z,2244.00
2023-07-23T13:00:25.784Z,2643.00
2023-07-23T13:01:25.844Z,2979.00
2023-07-23T13:02:25.786Z,3022.00
2023-07-23T13:03:25.804Z,3018.00
2023-07-23T13:04:25.744Z,3285.00
2023-07-23T13:05:25.729Z,3365.00
2023-07-23T13:06:25.767Z,3440.00
2023-07-23T13:07:25.713Z,3368.00
2023-07-23T13:08:25.692Z,2814.00
2023-07-23T13:09:25.681Z,3653.00
2023-07-23T13:10:25.674Z,4052.00
2023-07-23T13:11:25.686Z,4643.00
2023-07-23T13:12:25.652Z,5098.00
2023-07-23T13:13:25.632Z,5844.00
2023-07-23T13:14:25.628Z,6337.00
2023-07-23T13:15:25.640Z,5192.00
2023-07-23T13:16:25.619Z,4586.00
2023-07-23T13:17:25.616Z,3787.00
2023-07-23T13:18:25.588Z,3121.00
2023-07-23T13:19:25.587Z,2652.00
2023-07-23T13:20:25.563Z,2502.00
2023-07-23T13:21:27.129Z,2514.00
2023-07-23T13:22:25.551Z,2426.00
2023-07-23T13:23:25.555Z,2636.00
2023-07-23T13:24:25.616Z,3009.00
2023-07-23T13:25:25.509Z,2617.00
2023-07-23T13:26:25.488Z,2229.00
2023-07-23T13:27:25.506Z,2230.00
2023-07-23T13:28:25.496Z,2351.00
2023-07-23T13:29:25.465Z,2455.00
2023-07-23T13:30:25.475Z,2301.00
2023-07-23T13:31:25.469Z,2246.00
2023-07-23T13:32:25.452Z,2179.00
2023-07-23T13:33:25.442Z,2146.00
2023-07-23T13:34:25.432Z,2189.00
2023-07-23T13:35:25.404Z,2412.00
2023-07-23T13:36:25.391Z,2480.00
2023-07-23T13:37:25.377Z,2422.00
2023-07-23T13:38:25.380Z,2219.00
2023-07-23T13:39:25.367Z,2178.00
2023-07-23T13:40:25.356Z,2277.00
2023-07-23T13:41:25.329Z,2387.00
2023-07-23T13:42:25.345Z,2387.00
2023-07-23T13:43:25.306Z,2360.00
2023-07-23T13:44:25.309Z,2472.00
2023-07-23T13:45:25.312Z,2603.00
2023-07-23T13:46:25.327Z,2721.00
2023-07-23T13:47:25.295Z,2850.00
2023-07-23T13:48:25.252Z,2793.00
2023-07-23T13:49:25.251Z,2608.00
2023-07-23T13:50:31.308Z,2444.00
2023-07-23T13:51:25.224Z,2318.00
2023-07-23T13:52:25.229Z,2174.00
2023-07-23T13:53:25.206Z,1956.00
2023-07-23T13:54:25.218Z,1727.00
2023-07-23T13:55:25.160Z,1445.00
2023-07-23T13:56:25.230Z,1243.00
2023-07-23T13:57:25.148Z,1242.00
2023-07-23T13:58:25.161Z,1209.00
2023-07-23T13:59:25.119Z,946.00
2023-07-23T14:00:25.126Z,856.00
2023-07-23T14:01:25.134Z,858.00
2023-07-23T14:02:25.192Z,795.00
2023-07-23T14:03:25.146Z,834.00
2023-07-23T14:04:25.131Z,870.00
2023-07-23T14:05:25.056Z,783.00
2023-07-23T14:06:25.060Z,712.00
2023-07-23T14:07:25.060Z,677.00
2023-07-23T14:08:25.042Z,711.00
2023-07-23T14:09:25.032Z,748.00
2023-07-23T14:10:25.039Z,805.00
2023-07-23T14:11:25.005Z,762.00
2023-07-23T14:12:25.020Z,643.00
2023-07-23T14:13:24.999Z,718.00
2023-07-23T14:14:24.972Z,707.00
2023-07-23T14:15:24.969Z,722.00
2023-07-23T14:16:24.976Z,886.00
2023-07-23T14:17:25.028Z,1188.00
2023-07-23T14:18:24.944Z,1358.00
2023-07-23T14:19:24.932Z,1303.00
2023-07-23T14:20:24.919Z,1045.00
2023-07-23T14:21:24.891Z,1140.00
2023-07-23T14:22:24.886Z,1484.00
2023-07-23T14:23:24.874Z,1974.00
2023-07-23T14:24:24.896Z,2053.00
2023-07-23T14:25:24.866Z,2507.00
2023-07-23T14:26:24.841Z,2480.00
2023-07-23T14:27:24.842Z,2279.00
2023-07-23T14:28:24.845Z,2145.00
2023-07-23T14:29:24.832Z,2016.00
2023-07-23T14:30:24.886Z,2073.00
2023-07-23T14:31:24.874Z,1821.00
2023-07-23T14:32:24.794Z,1827.00
2023-07-23T14:33:24.759Z,1964.00
2023-07-23T14:34:24.792Z,1864.00
2023-07-23T14:35:24.751Z,1690.00
2023-07-23T14:36:24.739Z,1921.00
2023-07-23T14:37:24.715Z,1951.00
2023-07-23T14:38:24.740Z,1640.00
2023-07-23T14:39:24.710Z,1635.00
2023-07-23T14:40:24.693Z,1665.00
2023-07-23T14:41:24.669Z,1690.00
2023-07-23T14:42:24.671Z,1773.00
2023-07-23T14:43:24.670Z,1696.00
2023-07-23T14:44:24.657Z,1849.00
2023-07-23T14:45:24.654Z,1773.00
2023-07-23T14:46:24.660Z,1832.00
2023-07-23T14:47:24.668Z,2046.00
2023-07-23T14:48:24.612Z,2435.00
2023-07-23T14:49:24.617Z,2569.00
2023-07-23T14:50:24.628Z,2597.00
2023-07-23T14:51:24.561Z,2383.00
2023-07-23T14:52:24.556Z,2143.00
2023-07-23T14:53:24.540Z,1797.00
2023-07-23T14:54:24.559Z,1568.00
2023-07-23T14:55:26.019Z,1445.00
2023-07-23T14:56:24.520Z,1437.00
2023-07-23T14:57:24.550Z,1424.00
2023-07-23T14:58:24.487Z,1360.00
2023-07-23T14:59:24.497Z,1418.00
2023-07-23T15:00:24.495Z,1378.00
2023-07-23T15:01:24.576Z,1450.00
2023-07-23T15:02:24.594Z,1586.00
2023-07-23T15:03:24.680Z,1620.00
2023-07-23T15:04:24.467Z,1544.00
2023-07-23T15:05:24.460Z,1494.00
2023-07-23T15:06:24.452Z,1339.00
2023-07-23T15:07:24.389Z,1181.00
2023-07-23T15:08:24.456Z,1014.00
2023-07-23T15:09:24.454Z,912.00
2023-07-23T15:10:24.363Z,1047.00
2023-07-23T15:11:24.417Z,1292.00
2023-07-23T15:12:24.409Z,1657.00
2023-07-23T15:13:24.422Z,1695.00
2023-07-23T15:14:24.478Z,1667.00
2023-07-23T15:15:24.413Z,1551.00
2023-07-23T15:16:24.390Z,1424.00
2023-07-23T15:17:24.318Z,1453.00
2023-07-23T15:18:24.283Z,1414.00
2023-07-23T15:19:24.262Z,1323.00
2023-07-23T15:20:24.249Z,1266.00
2023-07-23T15:21:24.234Z,1243.00
2023-07-23T15:22:24.236Z,1274.00
2023-07-23T15:23:24.244Z,1358.00
2023-07-23T15:24:24.250Z,1661.00
2023-07-23T15:25:24.194Z,1732.00
2023-07-23T15:26:24.199Z,1684.00
2023-07-23T15:27:24.173Z,1594.00
2023-07-23T15:28:24.227Z,1577.00
2023-07-23T15:29:24.139Z,1473.00
2023-07-23T15:30:24.147Z,1393.00
2023-07-23T15:31:24.202Z,1454.00
2023-07-23T15:32:24.155Z,1534.00
2023-07-23T15:33:24.086Z,1520.00
2023-07-23T15:34:24.108Z,1496.00
2023-07-23T15:35:24.102Z,1473.00
2023-07-23T15:36:24.110Z,1413.00
2023-07-23T15:37:24.077Z,1391.00
2023-07-23T15:38:24.067Z,1339.00
2023-07-23T15:39:24.029Z,1324.00
2023-07-23T15:40:24.030Z,1273.00
2023-07-23T15:41:24.025Z,1251.00
2023-07-23T15:42:24.014Z,1265.00
2023-07-23T15:43:24.002Z,1235.00
2023-07-23T15:44:23.981Z,1223.00
2023-07-23T15:45:23.971Z,1189.00
2023-07-23T15:46:24.021Z,1281.00
2023-07-23T15:47:23.965Z,1319.00
2023-07-23T15:48:23.947Z,1420.00
2023-07-23T15:49:23.919Z,1575.00
2023-07-23T15:50:23.935Z,1592.00
2023-07-23T15:51:23.893Z,1622.00
2023-07-23T15:52:23.903Z,1829.00
2023-07-23T15:53:23.891Z,1862.00
2023-07-23T15:54:23.865Z,1800.00
2023-07-23T15:55:23.846Z,2071.00
2023-07-23T15:56:23.883Z,2660.00
2023-07-23T15:57:23.834Z,2835.00
2023-07-23T15:58:23.852Z,2848.00
2023-07-23T15:59:23.808Z,2536.00
2023-07-23T16:00:23.808Z,2932.00
2023-07-23T16:01:23.816Z,2677.00
2023-07-23T16:02:23.899Z,3113.00
2023-07-23T16:03:23.889Z,2742.00
2023-07-23T16:04:23.798Z,2454.00
2023-07-23T16:05:23.744Z,2719.00
2023-07-23T16:06:23.724Z,2828.00
2023-07-23T16:07:23.777Z,2551.00
2023-07-23T16:08:23.729Z,2083.00
2023-07-23T16:09:23.708Z,2077.00